Time;durP1;ratioP1;P1;durP2;ratioP2;P2;SDS_P1;SDS_P2;PMS_P1;PMS_P2;Temp;Humidity;BMP_temperature;BMP_pressure;BME280_temperature;BME280_humidity;BME280_pressure;Samples;Min_cycle;Max_cycle;Signal;HPM_P1;HPM_P2
2021/01/15 00:01:21;;;;;;;5.72;4.03;;;19.50;43.40;;;;;;5015393;28;20033;-65
2021/01/15 00:03:47;;;;;;;5.20;3.55;;;19.50;43.40;;;;;;5014956;28;20053;-65
2021/01/15 00:06:18;;;;;;;7.85;4.68;;;19.50;43.40;;;;;;5016326;28;20124;-64
2021/01/15 00:08:44;;;;;;;4.78;3.63;;;19.50;43.50;;;;;;5017800;28;20701;-65
2021/01/15 00:11:20;;;;;;;4.35;3.47;;;19.40;43.50;;;;;;5016156;28;20045;-65
2021/01/15 00:13:45;;;;;;;5.85;4.13;;;19.40;43.50;;;;;;5012746;28;20500;-65
2021/01/15 00:16:37;;;;;;;6.35;3.72;;;19.40;43.50;;;;;;5015411;28;20455;-64
2021/01/15 00:19:03;;;;;;;4.80;3.67;;;19.40;43.60;;;;;;5009565;28;20233;-66
2021/01/15 00:21:30;;;;;;;5.20;3.17;;;19.40;43.50;;;;;;5017430;28;20037;-64
2021/01/15 00:23:56;;;;;;;4.13;3.42;;;19.40;43.50;;;;;;5015586;28;20040;-64
2021/01/15 00:26:24;;;;;;;6.30;4.13;;;19.40;43.50;;;;;;4990789;28;20109;-65
2021/01/15 00:28:50;;;;;;;3.55;3.05;;;19.40;43.80;;;;;;4999568;28;20060;-65
2021/01/15 00:31:15;;;;;;;3.90;3.35;;;19.30;43.50;;;;;;5015597;28;20065;-64
2021/01/15 00:33:41;;;;;;;3.95;3.47;;;19.40;43.50;;;;;;4982120;28;20096;-64
2021/01/15 00:36:07;;;;;;;4.82;3.65;;;19.40;43.50;;;;;;5003461;28;20046;-65
2021/01/15 00:38:33;;;;;;;3.60;3.20;;;19.40;43.50;;;;;;5019246;28;20034;-63
2021/01/15 00:41:03;;;;;;;4.25;3.30;;;19.40;43.50;;;;;;5016061;28;20082;-65
2021/01/15 00:43:29;;;;;;;4.40;3.97;;;19.30;43.40;;;;;;4997003;28;20505;-62
2021/01/15 00:45:54;;;;;;;3.63;3.25;;;19.30;43.50;;;;;;5015794;28;20045;-63
2021/01/15 00:48:20;;;;;;;3.58;3.03;;;19.30;43.50;;;;;;5014125;28;20064;-65
2021/01/15 00:50:45;;;;;;;4.60;3.75;;;19.30;43.50;;;;;;4999201;28;20134;-65
2021/01/15 00:53:11;;;;;;;4.65;3.47;;;19.30;43.40;;;;;;4991802;28;20173;-64
2021/01/15 00:55:36;;;;;;;3.65;3.28;;;19.30;43.40;;;;;;4982809;28;20550;-64
2021/01/15 00:58:02;;;;;;;4.80;4.22;;;19.30;43.40;;;;;;5017093;28;20577;-65
2021/01/15 01:00:29;;;;;;;4.80;3.55;;;19.30;43.40;;;;;;5015887;28;20048;-65
2021/01/15 01:02:54;;;;;;;4.53;3.47;;;19.20;43.40;;;;;;5012962;28;20040;-65
2021/01/15 01:05:21;;;;;;;3.53;3.22;;;19.20;43.40;;;;;;5013644;28;20034;-64
2021/01/15 01:07:47;;;;;;;4.10;3.10;;;19.20;43.40;;;;;;5015022;28;20069;-66
2021/01/15 01:10:13;;;;;;;5.72;4.25;;;19.20;43.40;;;;;;5015911;28;20045;-65
2021/01/15 01:12:42;;;;;;;5.15;3.42;;;19.20;43.30;;;;;;4982880;28;20071;-65
2021/01/15 01:15:11;;;;;;;2.92;2.63;;;19.20;43.40;;;;;;5016847;28;20098;-66
2021/01/15 01:17:37;;;;;;;4.00;3.47;;;19.20;43.40;;;;;;4996536;28;20037;-65
2021/01/15 01:20:04;;;;;;;6.50;3.72;;;19.20;43.40;;;;;;4996066;28;20029;-65
2021/01/15 01:22:29;;;;;;;3.78;3.08;;;19.20;43.30;;;;;;5014880;28;20040;-65
2021/01/15 01:24:55;;;;;;;4.00;3.45;;;19.20;43.40;;;;;;5003588;28;20033;-65
2021/01/15 01:27:20;;;;;;;4.30;3.10;;;19.20;43.30;;;;;;4980501;28;20022;-64
2021/01/15 01:29:46;;;;;;;4.97;3.20;;;19.20;43.30;;;;;;4996211;28;20033;-65
2021/01/15 01:32:11;;;;;;;4.00;3.58;;;19.20;43.30;;;;;;5019476;28;20022;-65
2021/01/15 01:34:37;;;;;;;3.30;2.88;;;19.20;43.30;;;;;;5015267;28;20114;-65
2021/01/15 01:37:02;;;;;;;3.85;3.45;;;19.20;43.30;;;;;;5013069;28;20037;-65
2021/01/15 01:39:28;;;;;;;4.95;3.80;;;19.10;43.30;;;;;;5013467;28;20100;-65
2021/01/15 01:41:53;;;;;;;4.70;3.83;;;19.10;43.30;;;;;;5019546;28;20832;-64
2021/01/15 01:44:19;;;;;;;4.43;3.78;;;19.10;43.30;;;;;;5016006;28;20100;-65
2021/01/15 01:46:44;;;;;;;4.35;3.83;;;19.10;43.30;;;;;;5016456;28;20685;-63
2021/01/15 01:49:10;;;;;;;4.10;3.33;;;19.10;43.30;;;;;;4997645;28;20037;-64
2021/01/15 01:51:35;;;;;;;4.63;3.35;;;19.00;43.30;;;;;;4981509;28;20034;-64
2021/01/15 01:54:00;;;;;;;4.80;3.40;;;19.10;43.40;;;;;;4977457;28;20428;-65
2021/01/15 01:56:26;;;;;;;4.05;3.42;;;19.00;43.30;;;;;;4994965;28;20034;-63
2021/01/15 01:58:52;;;;;;;3.85;3.45;;;19.00;43.30;;;;;;4980229;28;20036;-65
2021/01/15 02:01:17;;;;;;;3.78;3.38;;;19.00;43.30;;;;;;4980172;28;20038;-67
2021/01/15 02:03:43;;;;;;;3.58;3.28;;;19.00;43.40;;;;;;4990801;28;20246;-66
2021/01/15 02:06:12;;;;;;;5.68;3.97;;;19.10;43.40;;;;;;4997730;28;20065;-65
2021/01/15 02:08:37;;;;;;;5.20;3.55;;;19.00;43.40;;;;;;4974865;28;20052;-65
2021/01/15 02:11:24;;;;;;;4.22;3.33;;;19.00;43.30;;;;;;4998380;28;20239;-65
2021/01/15 02:14:08;;;;;;;4.28;3.88;;;19.00;43.50;;;;;;4996510;28;20037;-65
2021/01/15 02:16:34;;;;;;;4.00;3.38;;;19.00;43.50;;;;;;5003724;28;20064;-65
2021/01/15 02:19:35;;;;;;;4.03;3.60;;;19.10;43.50;;;;;;4995296;28;20054;-66
2021/01/15 02:22:23;;;;;;;4.28;3.75;;;19.10;43.50;;;;;;4998318;28;20457;-63
2021/01/15 02:24:59;;;;;;;4.85;3.33;;;19.10;43.50;;;;;;4995938;28;22376;-66
2021/01/15 02:28:05;;;;;;;4.28;3.53;;;19.10;43.50;;;;;;4996942;28;20034;-65
2021/01/15 02:30:39;;;;;;;4.05;3.15;;;19.10;43.60;;;;;;4995671;28;20042;-65
2021/01/15 02:33:11;;;;;;;3.78;3.08;;;19.00;43.50;;;;;;5013743;28;20037;-65
2021/01/15 02:36:03;;;;;;;3.72;3.15;;;19.00;43.60;;;;;;4990200;28;20063;-65
2021/01/15 02:38:53;;;;;;;3.45;2.97;;;19.00;43.60;;;;;;4974847;28;20030;-65
2021/01/15 02:41:21;;;;;;;4.82;3.22;;;19.00;43.60;;;;;;5015697;28;20030;-64
2021/01/15 02:43:57;;;;;;;4.72;3.80;;;19.00;43.60;;;;;;5014781;28;20034;-65
2021/01/15 02:46:45;;;;;;;4.45;3.03;;;18.90;43.50;;;;;;4995016;28;20045;-67
2021/01/15 02:49:11;;;;;;;3.78;3.35;;;18.90;43.50;;;;;;4996186;28;20399;-65
2021/01/15 02:51:38;;;;;;;4.78;3.63;;;18.90;43.50;;;;;;5012250;28;20033;-65
2021/01/15 02:54:04;;;;;;;3.92;3.38;;;18.90;43.60;;;;;;4993951;28;20042;-64
2021/01/15 02:56:29;;;;;;;5.18;3.70;;;18.80;43.50;;;;;;4995416;28;20422;-65
2021/01/15 02:58:55;;;;;;;4.65;3.38;;;18.80;43.60;;;;;;5016008;28;20428;-65
2021/01/15 03:01:21;;;;;;;3.63;3.22;;;18.80;43.50;;;;;;5013784;28;20103;-65
2021/01/15 03:03:56;;;;;;;3.58;2.97;;;18.90;43.50;;;;;;4987067;28;20068;-64
2021/01/15 03:06:32;;;;;;;4.28;3.22;;;18.90;43.50;;;;;;5002584;28;20037;-65
2021/01/15 03:08:57;;;;;;;;;;;18.80;44.20;;;;;;4996080;28;20034;-64
2021/01/15 03:11:23;;;;;;;3.88;3.20;;;18.90;43.60;;;;;;4998825;28;19944;-65
2021/01/15 03:13:49;;;;;;;3.80;3.10;;;18.90;43.70;;;;;;5002685;28;20041;-67
2021/01/15 03:16:15;;;;;;;4.22;3.30;;;18.90;43.60;;;;;;5006312;28;20037;-64
2021/01/15 03:18:40;;;;;;;3.47;3.17;;;18.90;43.70;;;;;;4999400;28;20045;-63
2021/01/15 03:21:06;;;;;;;4.20;3.50;;;18.90;43.70;;;;;;5017352;28;20034;-64
2021/01/15 03:23:37;;;;;;;3.85;3.05;;;18.90;43.60;;;;;;5001087;28;20041;-64
2021/01/15 03:26:03;;;;;;;3.72;3.22;;;18.90;43.70;;;;;;5018193;28;20083;-65
2021/01/15 03:28:28;;;;;;;3.53;3.22;;;18.90;43.70;;;;;;5017831;28;20038;-64
2021/01/15 03:30:54;;;;;;;3.00;2.70;;;19.00;43.70;;;;;;5018158;28;20056;-65
2021/01/15 03:33:19;;;;;;;3.90;3.50;;;19.00;43.60;;;;;;5018404;28;20030;-64
2021/01/15 03:35:45;;;;;;;4.93;3.95;;;19.00;43.60;;;;;;5017320;28;20040;-65
2021/01/15 03:38:11;;;;;;;5.05;3.72;;;19.00;43.50;;;;;;4992482;28;20547;-63
2021/01/15 03:40:44;;;;;;;4.03;3.08;;;19.10;43.60;;;;;;5018389;28;20033;-65
2021/01/15 03:43:16;;;;;;;4.38;3.10;;;19.00;43.50;;;;;;4992581;28;20049;-65
2021/01/15 03:45:43;;;;;;;3.83;3.35;;;19.10;43.50;;;;;;5001724;28;20724;-65
2021/01/15 03:48:08;;;;;;;3.15;2.85;;;19.10;43.50;;;;;;4999135;28;20127;-64
2021/01/15 03:50:35;;;;;;;3.00;2.60;;;19.10;43.50;;;;;;4997110;28;20073;-64
2021/01/15 03:53:00;;;;;;;5.32;3.47;;;19.20;43.50;;;;;;5015070;28;20026;-64
2021/01/15 03:55:26;;;;;;;5.47;3.10;;;19.10;43.40;;;;;;5017517;28;20029;-65
2021/01/15 03:57:51;;;;;;;4.32;3.25;;;19.20;43.40;;;;;;5016380;28;20025;-66
2021/01/15 04:00:17;;;;;;;5.18;3.10;;;19.20;43.40;;;;;;5000828;28;20083;-65
2021/01/15 04:02:43;;;;;;;4.05;3.05;;;19.20;43.30;;;;;;5010209;28;20108;-65
2021/01/15 04:05:10;;;;;;;3.88;3.42;;;19.20;43.30;;;;;;5000158;28;20119;-64
2021/01/15 04:07:35;;;;;;;3.55;3.25;;;19.20;43.30;;;;;;5009008;28;20037;-65
2021/01/15 04:10:01;;;;;;;3.90;3.55;;;19.20;43.30;;;;;;5014538;28;20042;-65
2021/01/15 04:12:29;;;;;;;3.20;2.80;;;19.20;43.30;;;;;;5022960;28;20716;-66
2021/01/15 04:14:55;;;;;;;3.92;3.10;;;19.20;43.20;;;;;;5019172;28;20076;-65
2021/01/15 04:17:22;;;;;;;5.43;3.70;;;19.20;43.30;;;;;;5012826;28;21767;-65
2021/01/15 04:19:47;;;;;;;3.65;3.03;;;19.20;43.20;;;;;;4999844;28;20037;-64
2021/01/15 04:22:13;;;;;;;4.25;3.55;;;19.20;43.20;;;;;;5016890;28;20041;-63
2021/01/15 04:24:38;;;;;;;3.40;3.10;;;19.20;43.20;;;;;;5013958;28;20033;-65
2021/01/15 04:27:04;;;;;;;4.03;3.53;;;19.20;43.20;;;;;;5011931;28;20535;-65
2021/01/15 04:29:29;;;;;;;3.70;3.28;;;19.20;43.20;;;;;;5014495;28;20030;-64
2021/01/15 04:31:55;;;;;;;3.50;2.97;;;19.20;43.30;;;;;;5012377;28;20048;-65
2021/01/15 04:34:20;;;;;;;3.58;3.28;;;19.20;43.20;;;;;;5008824;28;20030;-64
2021/01/15 04:36:46;;;;;;;4.63;3.30;;;19.20;43.20;;;;;;5019640;28;20052;-65
2021/01/15 04:39:11;;;;;;;3.78;3.25;;;19.20;43.20;;;;;;5009024;28;20042;-64
2021/01/15 04:41:37;;;;;;;3.78;3.20;;;19.10;43.10;;;;;;5014137;28;20120;-64
2021/01/15 04:44:03;;;;;;;4.50;3.50;;;19.10;43.20;;;;;;4997580;28;20041;-63
2021/01/15 04:46:28;;;;;;;4.25;3.40;;;19.10;43.20;;;;;;5013645;28;20623;-63
2021/01/15 04:48:55;;;;;;;4.40;3.50;;;19.10;43.10;;;;;;4996835;28;20812;-62
2021/01/15 04:51:22;;;;;;;6.78;3.42;;;19.10;43.10;;;;;;5021388;28;20052;-64
2021/01/15 04:54:01;;;;;;;4.47;3.50;;;19.10;43.10;;;;;;5009535;28;20064;-63
2021/01/15 04:56:38;;;;;;;4.85;3.83;;;19.10;43.20;;;;;;5015648;28;20077;-67
2021/01/15 04:59:05;;;;;;;4.35;3.40;;;19.10;43.20;;;;;;5009836;28;20514;-65
2021/01/15 05:01:42;;;;;;;4.35;3.58;;;19.10;43.10;;;;;;5021327;28;20076;-64
2021/01/15 05:04:08;;;;;;;3.80;3.40;;;19.00;43.20;;;;;;5014168;28;20045;-63
2021/01/15 05:06:51;;;;;;;3.67;3.38;;;19.00;43.20;;;;;;4999001;28;20199;-63
2021/01/15 05:09:17;;;;;;;4.10;3.70;;;19.00;43.20;;;;;;4998109;28;20048;-64
2021/01/15 05:11:43;;;;;;;4.30;3.55;;;19.00;43.20;;;;;;5013154;28;20091;-65
2021/01/15 05:14:10;;;;;;;4.97;3.97;;;19.00;43.20;;;;;;5011229;28;20037;-65
2021/01/15 05:16:36;;;;;;;3.85;3.30;;;19.00;43.20;;;;;;4999550;28;20711;-62
2021/01/15 05:19:02;;;;;;;5.22;3.58;;;19.00;43.30;;;;;;4998713;28;20037;-65
2021/01/15 05:21:27;;;;;;;4.35;3.78;;;18.90;43.20;;;;;;5012194;28;20664;-68
2021/01/15 05:23:53;;;;;;;4.32;3.47;;;18.90;43.30;;;;;;4996280;28;20037;-65
2021/01/15 05:26:18;;;;;;;4.35;3.88;;;18.90;43.30;;;;;;4996447;28;20033;-67
2021/01/15 05:28:44;;;;;;;4.07;3.67;;;18.90;43.30;;;;;;4979743;28;20041;-66
2021/01/15 05:31:10;;;;;;;4.53;3.33;;;18.90;43.30;;;;;;4993808;28;20038;-66
2021/01/15 05:33:35;;;;;;;3.60;3.28;;;18.90;43.40;;;;;;4998199;28;20029;-63
2021/01/15 05:36:01;;;;;;;5.05;3.50;;;18.90;43.40;;;;;;5014352;28;20087;-63
2021/01/15 05:38:26;;;;;;;4.82;3.58;;;18.90;43.40;;;;;;5013283;28;20396;-63
2021/01/15 05:40:55;;;;;;;4.38;3.60;;;18.90;43.50;;;;;;5012642;28;20076;-63
2021/01/15 05:43:31;;;;;;;4.95;3.78;;;18.90;43.50;;;;;;4995832;28;20037;-65
2021/01/15 05:46:07;;;;;;;6.15;4.28;;;18.80;43.50;;;;;;5013795;28;20628;-66
2021/01/15 05:48:33;;;;;;;4.35;3.95;;;18.80;43.60;;;;;;5019465;28;20057;-63
2021/01/15 05:50:58;;;;;;;7.10;4.00;;;18.80;43.60;;;;;;5014585;28;20824;-64
2021/01/15 05:53:24;;;;;;;6.50;3.53;;;18.80;43.60;;;;;;5011972;28;20030;-64
2021/01/15 05:55:58;;;;;;;5.13;3.58;;;18.80;43.70;;;;;;4994564;28;20120;-65
2021/01/15 05:58:24;;;;;;;5.95;4.22;;;18.80;43.70;;;;;;5012087;28;20038;-66
2021/01/15 06:00:52;;;;;;;7.43;3.85;;;18.80;43.70;;;;;;4993965;28;20040;-64
2021/01/15 06:03:18;;;;;;;5.25;3.78;;;18.80;43.80;;;;;;5013562;28;20509;-65
2021/01/15 06:05:48;;;;;;;7.55;4.10;;;18.80;43.90;;;;;;5011762;28;20041;-63
2021/01/15 06:08:13;;;;;;;6.63;4.53;;;18.80;43.90;;;;;;4995331;28;20049;-62
2021/01/15 06:10:47;;;;;;;11.35;4.78;;;18.70;43.90;;;;;;5002401;28;20033;-64
2021/01/15 06:13:39;;;;;;;7.70;4.57;;;18.70;44.00;;;;;;5007064;28;20087;-66
2021/01/15 06:16:05;;;;;;;6.38;4.40;;;18.70;44.00;;;;;;4996490;28;20049;-66
2021/01/15 06:18:31;;;;;;;8.30;4.20;;;18.70;44.10;;;;;;5012480;28;20045;-66
2021/01/15 06:21:07;;;;;;;7.82;4.20;;;18.70;44.10;;;;;;4994068;28;20038;-62
2021/01/15 06:23:34;;;;;;;7.40;3.90;;;18.70;44.10;;;;;;5014499;28;20037;-64
2021/01/15 06:26:00;;;;;;;7.35;4.55;;;18.70;44.10;;;;;;4981401;28;20496;-63
2021/01/15 06:28:33;;;;;;;6.88;4.78;;;18.70;44.20;;;;;;5002262;28;20084;-64
2021/01/15 06:30:59;;;;;;;7.68;5.70;;;18.70;44.30;;;;;;5023430;28;20117;-61
2021/01/15 06:33:24;;;;;;;11.15;5.50;;;18.70;44.40;;;;;;5024091;28;20225;-63
2021/01/15 06:35:50;;;;;;;10.80;5.88;;;18.70;44.50;;;;;;5023042;28;20053;-64
2021/01/15 06:38:17;;;;;;;11.93;7.15;;;18.70;44.60;;;;;;5008918;28;20079;-64
2021/01/15 06:40:49;;;;;;;15.48;8.45;;;18.70;44.70;;;;;;5023688;28;20065;-63
2021/01/15 06:43:27;;;;;;;14.43;8.45;;;18.60;44.70;;;;;;5023729;28;20079;-62
2021/01/15 06:45:54;;;;;;;15.13;9.57;;;18.60;44.70;;;;;;5023319;28;20022;-63
2021/01/15 06:48:24;;;;;;;20.40;9.88;;;18.60;44.90;;;;;;5027775;28;20099;-65
2021/01/15 06:50:54;;;;;;;20.92;10.02;;;18.60;45.00;;;;;;5028933;28;20041;-64
2021/01/15 06:53:23;;;;;;;18.05;10.50;;;18.60;45.00;;;;;;5011313;28;20037;-64
2021/01/15 06:55:51;;;;;;;16.73;10.07;;;18.50;45.00;;;;;;5010472;28;20025;-63
2021/01/15 06:58:30;;;;;;;16.33;9.82;;;18.50;45.10;;;;;;5028582;28;20032;-65
2021/01/15 07:01:17;;;;;;;17.35;10.43;;;18.50;45.10;;;;;;5027662;28;20072;-65
2021/01/15 07:04:19;;;;;;;18.92;9.90;;;18.50;45.10;;;;;;5028463;28;20034;-62
2021/01/15 07:06:56;;;;;;;18.67;10.32;;;18.50;45.10;;;;;;5014119;28;20068;-63
2021/01/15 07:09:22;;;;;;;15.77;9.65;;;18.50;45.10;;;;;;5010766;28;20172;-63
2021/01/15 07:11:47;;;;;;;14.40;9.73;;;18.50;45.20;;;;;;5016861;28;20121;-65
2021/01/15 07:14:12;;;;;;;16.60;9.50;;;18.50;45.20;;;;;;5010000;28;20041;-64
2021/01/15 07:16:39;;;;;;;16.27;9.13;;;18.50;45.10;;;;;;5009972;28;20021;-65
2021/01/15 07:19:04;;;;;;;15.43;9.48;;;18.50;45.10;;;;;;5028708;28;20079;-65
2021/01/15 07:21:31;;;;;;;15.00;8.13;;;18.50;45.10;;;;;;5027622;28;20146;-65
2021/01/15 07:23:57;;;;;;;15.38;10.13;;;18.50;45.00;;;;;;5010619;28;20038;-65
2021/01/15 07:26:22;;;;;;;13.55;8.60;;;18.60;45.00;;;;;;4993946;28;20037;-65
2021/01/15 07:28:48;;;;;;;15.45;8.85;;;18.50;45.00;;;;;;5027348;28;20563;-65
2021/01/15 07:31:22;;;;;;;12.77;8.43;;;18.60;45.00;;;;;;5009535;28;20033;-64
2021/01/15 07:33:51;;;;;;;13.77;8.65;;;18.60;44.90;;;;;;5010518;28;20025;-66
2021/01/15 07:36:31;;;;;;;14.95;8.57;;;18.60;44.90;;;;;;4993108;28;20060;-64
2021/01/15 07:39:15;;;;;;;15.90;7.82;;;18.60;44.90;;;;;;5009525;28;20037;-65
2021/01/15 07:41:49;;;;;;;12.68;7.70;;;18.60;44.70;;;;;;5026681;28;20642;-65
2021/01/15 07:44:21;;;;;;;14.00;7.53;;;18.70;44.80;;;;;;5027209;28;20057;-65
2021/01/15 07:46:50;;;;;;;9.98;7.25;;;18.70;44.80;;;;;;5027424;28;20060;-65
2021/01/15 07:49:15;;;;;;;10.48;6.65;;;18.70;44.70;;;;;;5027534;28;20030;-65
2021/01/15 07:51:41;;;;;;;11.40;7.20;;;18.70;44.70;;;;;;5022461;28;20059;-64
2021/01/15 07:54:06;;;;;;;11.18;6.22;;;18.80;44.70;;;;;;5006209;28;20836;-64
2021/01/15 07:56:32;;;;;;;9.90;6.03;;;18.80;44.60;;;;;;4987765;28;20045;-64
2021/01/15 07:58:57;;;;;;;7.50;5.68;;;18.80;44.60;;;;;;5004416;28;20022;-63
2021/01/15 08:01:23;;;;;;;10.02;6.38;;;18.80;44.60;;;;;;5005555;28;20038;-65
2021/01/15 08:03:54;;;;;;;11.38;6.95;;;18.80;44.50;;;;;;5005876;28;20029;-65
2021/01/15 08:06:20;;;;;;;10.55;6.32;;;18.90;44.50;;;;;;4988419;28;20257;-65
2021/01/15 08:09:07;;;;;;;9.68;5.95;;;18.90;44.50;;;;;;5006899;28;20501;-65
2021/01/15 08:11:34;;;;;;;8.52;6.07;;;19.00;44.50;;;;;;4989480;28;20052;-62
2021/01/15 08:14:12;;;;;;;11.82;5.93;;;19.00;44.40;;;;;;5006296;28;20030;-63
2021/01/15 08:16:39;;;;;;;9.27;5.22;;;19.10;44.40;;;;;;5006620;28;20038;-63
2021/01/15 08:19:11;;;;;;;8.52;5.38;;;19.10;44.30;;;;;;4989025;28;20459;-61
2021/01/15 08:21:36;;;;;;;8.18;5.40;;;19.20;44.30;;;;;;5005720;28;20041;-62
2021/01/15 08:24:05;;;;;;;9.70;4.97;;;19.20;44.20;;;;;;4989720;28;20022;-63
2021/01/15 08:26:51;;;;;;;7.00;5.55;;;19.30;44.10;;;;;;5005457;28;20042;-62
2021/01/15 08:29:17;;;;;;;8.10;5.57;;;19.30;44.00;;;;;;5006331;28;20034;-62
2021/01/15 08:31:44;;;;;;;9.82;5.10;;;19.40;44.00;;;;;;5006189;28;20030;-63
2021/01/15 08:34:13;;;;;;;9.32;5.43;;;19.50;44.00;;;;;;4989172;28;20111;-65
2021/01/15 08:36:45;;;;;;;9.13;4.80;;;19.50;43.80;;;;;;5005834;28;20122;-62
2021/01/15 08:39:11;;;;;;;5.75;4.70;;;19.50;43.80;;;;;;5006310;28;20042;-63
2021/01/15 08:41:36;;;;;;;5.85;4.15;;;19.50;43.70;;;;;;5006031;28;20036;-62
2021/01/15 08:44:02;;;;;;;7.78;4.72;;;19.60;43.80;;;;;;5007315;28;20029;-63
2021/01/15 08:46:28;;;;;;;7.35;4.07;;;19.60;43.70;;;;;;5005759;28;20045;-61
2021/01/15 08:48:54;;;;;;;6.28;4.28;;;19.70;43.70;;;;;;4988711;28;20034;-63
2021/01/15 08:51:19;;;;;;;6.78;4.95;;;19.70;43.60;;;;;;5005101;28;20038;-62
2021/01/15 08:54:05;;;;;;;6.07;4.00;;;19.70;43.50;;;;;;5006091;28;20018;-62
2021/01/15 08:56:33;;;;;;;6.22;4.25;;;19.70;43.50;;;;;;5004987;28;20034;-63
2021/01/15 08:58:58;;;;;;;5.30;4.10;;;19.70;43.50;;;;;;5005713;28;20033;-64
2021/01/15 09:01:29;;;;;;;9.55;3.92;;;19.70;43.40;;;;;;5005020;28;20025;-64
2021/01/15 09:04:02;;;;;;;6.20;3.72;;;19.70;43.40;;;;;;5005631;28;20551;-63
2021/01/15 09:06:28;;;;;;;7.53;4.10;;;19.70;43.40;;;;;;4988848;28;20113;-61
2021/01/15 09:08:55;;;;;;;3.83;3.20;;;19.70;43.30;;;;;;5005686;28;20124;-62
2021/01/15 09:11:25;;;;;;;3.97;3.58;;;19.70;43.10;;;;;;4987181;28;20047;-63
2021/01/15 09:13:51;;;;;;;4.38;3.53;;;19.70;43.10;;;;;;4988049;28;20058;-62
2021/01/15 09:16:17;;;;;;;4.32;3.13;;;19.70;42.90;;;;;;4988090;28;20605;-65
2021/01/15 09:18:42;;;;;;;4.40;3.08;;;19.70;42.60;;;;;;4988308;28;20046;-62
2021/01/15 09:21:08;;;;;;;4.35;3.80;;;19.60;42.40;;;;;;5005179;28;20022;-61
2021/01/15 09:23:34;;;;;;;7.72;3.67;;;19.60;42.10;;;;;;4987616;28;20061;-61
2021/01/15 09:25:59;;;;;;;5.10;3.90;;;19.60;42.00;;;;;;5004417;28;20034;-61
2021/01/15 09:28:25;;;;;;;5.50;3.63;;;19.60;41.70;;;;;;5004855;28;20026;-64
2021/01/15 09:30:51;;;;;;;5.68;3.50;;;19.60;41.60;;;;;;4987241;28;20045;-62
2021/01/15 09:33:16;;;;;;;4.47;4.05;;;19.50;41.40;;;;;;5005674;28;20052;-61
2021/01/15 09:35:42;;;;;;;6.47;4.10;;;19.50;41.20;;;;;;5004563;28;21862;-63
2021/01/15 09:38:07;;;;;;;4.45;3.90;;;19.50;41.20;;;;;;5005080;28;20038;-61
2021/01/15 09:40:32;;;;;;;4.82;3.67;;;19.40;41.10;;;;;;5004294;28;20026;-62
2021/01/15 09:43:01;;;;;;;3.90;3.30;;;19.40;41.20;;;;;;5005168;28;20444;-64
2021/01/15 09:45:26;;;;;;;4.28;2.88;;;19.40;41.90;;;;;;5004779;28;20018;-65
2021/01/15 09:47:52;;;;;;;3.30;3.00;;;19.40;42.00;;;;;;5004693;28;20044;-63
2021/01/15 09:50:18;;;;;;;4.57;2.75;;;19.40;42.30;;;;;;4987463;28;20046;-63
2021/01/15 09:52:47;;;;;;;4.35;3.25;;;19.40;42.40;;;;;;5004799;28;20072;-63
2021/01/15 09:55:13;;;;;;;4.22;2.65;;;19.40;42.40;;;;;;5004320;28;20500;-64
2021/01/15 09:57:43;;;;;;;3.22;2.63;;;19.30;42.50;;;;;;5004602;28;20040;-62
2021/01/15 10:00:10;;;;;;;3.00;2.70;;;19.40;42.60;;;;;;5004896;28;20109;-66
2021/01/15 10:02:36;;;;;;;4.97;2.50;;;19.30;42.90;;;;;;5015136;28;20030;-66
2021/01/15 10:05:01;;;;;;;4.05;2.47;;;19.30;42.70;;;;;;5005310;28;20096;-65
2021/01/15 10:07:27;;;;;;;7.05;2.67;;;19.20;42.80;;;;;;5005498;28;20042;-65
2021/01/15 10:09:52;;;;;;;3.53;2.42;;;19.30;42.90;;;;;;5004723;28;20718;-66
2021/01/15 10:12:18;;;;;;;3.53;2.63;;;19.30;43.10;;;;;;5005640;28;20034;-66
2021/01/15 10:14:43;;;;;;;2.92;2.50;;;19.20;42.90;;;;;;4975139;28;20030;-65
2021/01/15 10:17:09;;;;;;;5.75;2.45;;;19.20;43.00;;;;;;5004583;28;20617;-67
2021/01/15 10:19:34;;;;;;;2.50;2.13;;;19.20;43.10;;;;;;5005058;28;20053;-67
2021/01/15 10:22:00;;;;;;;2.80;2.22;;;19.20;43.10;;;;;;4988910;28;20152;-65
2021/01/15 10:24:25;;;;;;;3.55;2.42;;;19.20;43.20;;;;;;5024322;28;20033;-66
2021/01/15 10:26:51;;;;;;;7.60;2.80;;;19.10;43.20;;;;;;5024790;28;20364;-67
2021/01/15 10:29:16;;;;;;;5.25;2.40;;;19.10;43.30;;;;;;5024478;28;20033;-65
2021/01/15 10:31:50;;;;;;;3.33;2.38;;;19.10;43.30;;;;;;5024597;28;20100;-67
2021/01/15 10:34:16;;;;;;;4.10;2.03;;;19.10;43.40;;;;;;5007651;28;20033;-67
2021/01/15 10:36:42;;;;;;;2.70;2.00;;;19.10;43.40;;;;;;5024685;28;20033;-66
2021/01/15 10:39:08;;;;;;;2.58;2.05;;;19.10;43.40;;;;;;5024344;28;20419;-67
2021/01/15 10:41:41;;;;;;;3.30;2.33;;;19.00;43.40;;;;;;5006616;28;20033;-66
2021/01/15 10:44:10;;;;;;;3.38;2.15;;;19.10;43.40;;;;;;4989104;28;20681;-66
2021/01/15 10:46:36;;;;;;;2.75;2.25;;;19.00;43.40;;;;;;5005419;28;20029;-66
2021/01/15 10:49:03;;;;;;;4.43;2.30;;;19.00;43.50;;;;;;5024645;28;20075;-68
2021/01/15 10:51:29;;;;;;;2.65;2.40;;;19.00;43.50;;;;;;5007146;28;20034;-66
2021/01/15 10:53:54;;;;;;;3.60;2.72;;;19.00;43.50;;;;;;5006082;28;20030;-66
2021/01/15 10:56:20;;;;;;;3.83;2.80;;;19.00;43.50;;;;;;5024716;28;20053;-66
2021/01/15 10:58:45;;;;;;;4.82;2.28;;;19.00;43.70;;;;;;5024641;28;20028;-65
2021/01/15 11:01:11;;;;;;;5.18;2.10;;;18.90;43.80;;;;;;5006651;28;20526;-66
2021/01/15 11:03:36;;;;;;;3.22;2.15;;;18.90;43.90;;;;;;5024403;28;20056;-66
2021/01/15 11:06:02;;;;;;;5.43;2.80;;;18.90;43.90;;;;;;5023676;28;20152;-65
2021/01/15 11:08:27;;;;;;;4.43;2.25;;;18.90;44.00;;;;;;5006314;28;20110;-66
2021/01/15 11:10:53;;;;;;;3.17;2.08;;;18.90;44.00;;;;;;5024619;28;20136;-66
2021/01/15 11:13:18;;;;;;;3.70;2.28;;;18.90;44.10;;;;;;5006732;28;20727;-66
2021/01/15 11:15:44;;;;;;;6.10;2.45;;;18.80;44.10;;;;;;5023430;28;20201;-66
2021/01/15 11:18:09;;;;;;;4.00;2.40;;;18.80;44.10;;;;;;5023762;28;20038;-66
2021/01/15 11:20:35;;;;;;;3.47;2.03;;;18.80;44.10;;;;;;5024424;28;20543;-66
2021/01/15 11:23:00;;;;;;;3.78;2.42;;;18.80;44.10;;;;;;5025836;28;20026;-66
2021/01/15 11:25:26;;;;;;;4.07;2.20;;;18.70;44.70;;;;;;5024306;28;20064;-67
2021/01/15 11:27:51;;;;;;;3.85;2.20;;;18.70;44.20;;;;;;5024545;28;20039;-65
2021/01/15 11:30:17;;;;;;;3.67;2.22;;;18.70;44.20;;;;;;5024168;28;20033;-66
2021/01/15 11:32:43;;;;;;;2.08;1.80;;;18.70;44.20;;;;;;5024082;28;20824;-63
2021/01/15 11:35:09;;;;;;;4.10;2.00;;;18.60;44.20;;;;;;5027913;28;20057;-64
2021/01/15 11:37:35;;;;;;;2.53;2.15;;;18.60;44.20;;;;;;5027347;28;20057;-66
2021/01/15 11:40:07;;;;;;;3.83;2.47;;;18.60;44.20;;;;;;5010270;28;20029;-68
2021/01/15 11:42:33;;;;;;;3.28;2.30;;;18.60;44.20;;;;;;5009804;28;20040;-66
2021/01/15 11:44:58;;;;;;;3.05;2.28;;;18.60;44.10;;;;;;5027675;28;20029;-66
2021/01/15 11:47:24;;;;;;;5.47;2.55;;;18.60;44.00;;;;;;5027540;28;20030;-64
2021/01/15 11:49:50;;;;;;;2.67;2.40;;;18.60;44.10;;;;;;5026956;28;20052;-64
2021/01/15 11:52:15;;;;;;;2.95;2.00;;;18.60;44.10;;;;;;5027168;28;20627;-66
2021/01/15 11:54:41;;;;;;;3.22;2.00;;;18.60;44.10;;;;;;5027215;28;20036;-66
2021/01/15 11:57:06;;;;;;;4.18;2.00;;;18.60;44.20;;;;;;5027224;28;20029;-65
2021/01/15 11:59:32;;;;;;;4.60;2.30;;;18.60;44.20;;;;;;5027155;28;20393;-66
2021/01/15 12:01:58;;;;;;;4.05;1.88;;;18.60;44.20;;;;;;5027477;28;20026;-66
2021/01/15 12:04:23;;;;;;;3.88;1.88;;;18.60;44.20;;;;;;5027117;28;20025;-65
2021/01/15 12:06:55;;;;;;;3.65;1.80;;;18.60;44.20;;;;;;5026922;28;20044;-66
2021/01/15 12:09:21;;;;;;;4.90;2.30;;;18.60;44.20;;;;;;5009699;28;20029;-66
2021/01/15 12:11:46;;;;;;;4.10;2.47;;;18.60;44.20;;;;;;5026927;28;20687;-65
2021/01/15 12:14:12;;;;;;;2.25;1.73;;;18.60;44.30;;;;;;5026788;28;20029;-67
2021/01/15 12:16:38;;;;;;;2.47;1.88;;;18.60;44.30;;;;;;5026684;28;20052;-66
2021/01/15 12:19:04;;;;;;;4.18;2.30;;;18.60;44.30;;;;;;5008855;28;20033;-67
2021/01/15 12:21:29;;;;;;;2.45;2.15;;;18.60;44.30;;;;;;5027187;28;20030;-67
2021/01/15 12:23:55;;;;;;;1.80;1.70;;;18.60;44.20;;;;;;5026539;28;20029;-65
2021/01/15 12:26:20;;;;;;;2.38;1.83;;;18.60;44.20;;;;;;5009331;28;20533;-66
2021/01/15 12:28:46;;;;;;;2.70;1.60;;;18.60;44.20;;;;;;5026383;28;20025;-64
2021/01/15 12:31:11;;;;;;;3.53;2.33;;;18.60;44.20;;;;;;5026702;28;20037;-65
2021/01/15 12:33:37;;;;;;;5.97;3.33;;;18.70;44.90;;;;;;5026244;28;20025;-66
2021/01/15 12:36:02;;;;;;;5.07;2.28;;;18.60;44.10;;;;;;5026409;28;20080;-65
2021/01/15 12:38:28;;;;;;;2.28;1.65;;;18.70;44.20;;;;;;5027001;28;20038;-65
2021/01/15 12:40:53;;;;;;;2.20;1.95;;;18.70;44.20;;;;;;5026390;28;20044;-65
2021/01/15 12:43:19;;;;;;;3.97;2.05;;;18.70;44.20;;;;;;5026522;28;20477;-65
2021/01/15 12:45:47;;;;;;;4.97;2.10;;;18.70;44.30;;;;;;5025480;28;20066;-65
2021/01/15 12:48:13;;;;;;;2.20;1.70;;;18.70;44.30;;;;;;5026164;28;20043;-64
2021/01/15 12:50:39;;;;;;;2.75;1.90;;;18.80;45.00;;;;;;5026155;28;20041;-64